Time;durP1;ratioP1;P1;durP2;ratioP2;P2;SDS_P1;SDS_P2;PMS_P1;PMS_P2;Temp;Humidity;BMP_temperature;BMP_pressure;BME280_temperature;BME280_humidity;BME280_pressure;Samples;Min_cycle;Max_cycle;Signal;HPM_P1;HPM_P2
2022/09/22 00:00:04;;;;;;;;;;;;;;;21.43;29.53;97856.50;5021600;28;1921;-79
2022/09/22 00:02:31;;;;;;;;;;;;;;;21.13;29.53;97850.03;5054618;28;643;-78
2022/09/22 00:04:56;;;;;;;;;;;;;;;20.94;30.28;97853.78;5039470;28;730;-79
2022/09/22 00:07:22;;;;;;;;;;;;;;;20.88;30.20;97855.53;5055008;28;731;-79
2022/09/22 00:09:49;;;;;;;;;;;;;;;20.68;30.64;97855.66;5038253;28;707;-79
2022/09/22 00:12:14;;;;;;;;;;;;;;;20.71;30.65;97846.28;5040017;28;1430;-79
2022/09/22 00:14:39;;;;;;;;;;;;;;;20.98;30.09;97849.59;5071460;28;912;-79
2022/09/22 00:17:05;;;;;;;;;;;;;;;21.10;30.19;97839.59;5038216;28;1229;-79
2022/09/22 00:19:32;;;;;;;;;;;;;;;21.37;29.81;97841.34;5044639;28;1985;-79
2022/09/22 00:21:57;;;;;;;;;;;;;;;21.17;29.89;97833.75;5075048;28;1187;-79
2022/09/22 00:24:23;;;;;;;;;;;;;;;20.99;30.47;97836.28;5074490;28;853;-79
2022/09/22 00:30:24;;;;;;;;;;;;;;;20.93;30.75;97838.03;5058740;28;614;-79
2022/09/22 00:32:49;;;;;;;;;;;;;;;20.98;30.67;97838.28;5057930;28;1223;-79
2022/09/22 00:35:14;;;;;;;;;;;;;;;21.11;30.63;97832.72;5073117;28;1505;-79
2022/09/22 00:38:05;;;;;;;;;;;;;;;21.25;30.17;97843.63;5074434;28;825;-79
2022/09/22 00:40:31;;;;;;;;;;;;;;;21.60;30.05;97826.88;5038862;28;1911;-79
2022/09/22 00:43:13;;;;;;;;;;;;;;;21.28;29.97;97828.56;5070908;28;801;-78
2022/09/22 00:45:38;;;;;;;;;;;;;;;21.01;30.86;97830.97;5070696;28;730;-79
2022/09/22 00:48:03;;;;;;;;;;;;;;;21.05;30.49;97832.47;5070880;28;714;-79
2022/09/22 00:50:29;;;;;;;;;;;;;;;20.99;30.67;97834.25;5070383;28;809;-79
2022/09/22 00:52:57;;;;;;;;;;;;;;;21.16;30.75;97837.81;5053863;28;1541;-79
2022/09/22 00:55:27;;;;;;;;;;;;;;;21.13;30.88;97830.22;5037421;28;1329;-79
2022/09/22 00:57:53;;;;;;;;;;;;;;;21.43;30.66;97829.00;5020997;28;1111;-78
2022/09/22 01:00:18;;;;;;;;;;;;;;;21.59;30.10;97820.44;5020722;28;1961;-79
2022/09/22 01:02:45;;;;;;;;;;;;;;;21.07;30.79;97829.97;5037703;28;798;-79
2022/09/22 01:05:11;;;;;;;;;;;;;;;21.10;30.87;97833.16;5019375;28;1216;-78
2022/09/22 01:07:36;;;;;;;;;;;;;;;20.80;31.57;97833.13;5019109;28;1547;-79
2022/09/22 01:10:02;;;;;;;;;;;;;;;21.13;30.87;97837.91;5038757;28;1540;-79
2022/09/22 01:12:28;;;;;;;;;;;;;;;21.25;30.90;97846.47;5039240;28;826;-79
2022/09/22 01:15:06;;;;;;;;;;;;;;;21.46;30.47;97838.66;5039244;28;817;-79
2022/09/22 01:21:12;;;;;;;;;;;;;;;20.96;31.23;97834.31;5056005;28;1909;-79
2022/09/22 01:23:56;;;;;;;;;;;;;;;21.03;31.24;97828.47;5021599;28;1534;-79
2022/09/22 01:26:31;;;;;;;;;;;;;;;20.91;31.49;97837.69;5038151;28;1565;-78
2022/09/22 01:29:14;;;;;;;;;;;;;;;21.18;30.90;97823.22;5055522;28;750;-79
2022/09/22 01:31:49;;;;;;;;;;;;;;;20.98;31.02;97835.47;5039047;28;1201;-79
2022/09/22 01:34:14;;;;;;;;;;;;;;;20.86;31.42;97841.06;5055620;28;794;-79
2022/09/22 01:36:48;;;;;;;;;;;;;;;21.02;31.14;97838.19;5067482;28;1138;-79
2022/09/22 01:39:30;;;;;;;;;;;;;;;21.03;30.96;97840.56;5090203;28;1988;-79
2022/09/22 01:42:23;;;;;;;;;;;;;;;21.26;30.96;97845.22;5072131;28;1480;-79
2022/09/22 01:44:51;;;;;;;;;;;;;;;21.43;30.48;97848.03;5058751;28;933;-79
2022/09/22 01:47:29;;;;;;;;;;;;;;;21.08;31.04;97842.06;5089647;28;825;-79
2022/09/22 01:49:59;;;;;;;;;;;;;;;21.00;31.11;97840.69;5057471;28;841;-79
2022/09/22 01:56:01;;;;;;;;;;;;;;;20.67;31.73;97837.88;5049930;28;1308;-78
2022/09/22 01:58:33;;;;;;;;;;;;;;;20.74;31.57;97839.75;5019985;28;1123;-78
2022/09/22 02:01:06;;;;;;;;;;;;;;;20.73;31.56;97833.31;5048241;28;1906;-78
2022/09/22 02:03:32;;;;;;;;;;;;;;;21.31;30.83;97839.03;5036037;28;731;-79
2022/09/22 02:06:00;;;;;;;;;;;;;;;21.51;30.73;97843.75;5037017;28;849;-78
2022/09/22 02:08:27;;;;;;;;;;;;;;;21.30;30.44;97845.94;5019672;28;822;-79
2022/09/22 02:10:52;;;;;;;;;;;;;;;20.97;31.15;97845.19;5051851;28;1195;-78
2022/09/22 02:13:18;;;;;;;;;;;;;;;21.06;31.13;97841.72;5037148;28;778;-78
2022/09/22 02:16:01;;;;;;;;;;;;;;;20.85;31.50;97847.97;5050966;28;1481;-79
2022/09/22 02:18:36;;;;;;;;;;;;;;;20.88;31.47;97847.06;5084517;28;801;-79
2022/09/22 02:21:01;;;;;;;;;;;;;;;20.84;31.41;97837.88;5057049;28;1905;-79
2022/09/22 02:27:09;;;;;;;;;;;;;;;20.75;31.50;97836.47;5056945;28;676;-78
2022/09/22 02:29:35;;;;;;;;;;;;;;;21.03;31.49;97834.13;5055573;28;1523;-79
2022/09/22 02:32:01;;;;;;;;;;;;;;;21.25;31.21;97826.66;5088913;28;785;-78
2022/09/22 02:38:07;;;;;;;;;;;;;;;21.06;31.40;97827.59;5055040;28;1562;-79
2022/09/22 02:40:42;;;;;;;;;;;;;;;20.92;31.43;97822.31;5088804;28;1918;-82
2022/09/22 02:43:27;;;;;;;;;;;;;;;20.83;31.67;97819.31;5051752;28;1632;-79
2022/09/22 02:46:13;;;;;;;;;;;;;;;20.85;31.46;97822.50;5067319;28;1331;-79
2022/09/22 02:48:40;;;;;;;;;;;;;;;20.72;31.72;97817.56;5074735;28;814;-79
2022/09/22 02:51:06;;;;;;;;;;;;;;;20.76;31.91;97821.09;5041387;28;1036;-79
2022/09/22 02:53:32;;;;;;;;;;;;;;;21.18;31.12;97824.00;5041133;28;861;-79
2022/09/22 02:55:57;;;;;;;;;;;;;;;21.52;30.44;97825.53;5057710;28;821;-79
2022/09/22 02:58:23;;;;;;;;;;;;;;;21.17;30.92;97828.09;5037414;28;1585;-79
2022/09/22 03:00:48;;;;;;;;;;;;;;;21.23;30.99;97826.28;5055153;28;1905;-79
2022/09/22 03:03:14;;;;;;;;;;;;;;;20.98;31.29;97826.97;5073414;28;1514;-78
2022/09/22 03:05:39;;;;;;;;;;;;;;;20.80;31.30;97837.97;5073799;28;1613;-79
2022/09/22 03:08:05;;;;;;;;;;;;;;;20.84;31.62;97838.69;5074636;28;802;-79
2022/09/22 03:10:30;;;;;;;;;;;;;;;20.61;31.71;97831.19;5074172;28;797;-79
2022/09/22 03:12:56;;;;;;;;;;;;;;;20.69;31.67;97831.81;5074244;28;833;-79
2022/09/22 03:15:21;;;;;;;;;;;;;;;21.06;31.55;97841.72;5041333;28;1239;-79
2022/09/22 03:17:47;;;;;;;;;;;;;;;21.44;30.53;97836.25;5037149;28;923;-78
2022/09/22 03:20:13;;;;;;;;;;;;;;;21.59;30.38;97833.81;5077261;28;1906;-79
2022/09/22 03:22:39;;;;;;;;;;;;;;;21.14;30.91;97845.97;5100829;28;1496;-79
2022/09/22 03:25:05;;;;;;;;;;;;;;;20.87;31.31;97832.13;5114853;28;789;-79
2022/09/22 03:27:30;;;;;;;;;;;;;;;21.11;30.97;97824.22;5079972;28;1143;-79
2022/09/22 03:29:56;;;;;;;;;;;;;;;20.98;31.01;97826.97;5080834;28;1579;-79
2022/09/22 03:32:21;;;;;;;;;;;;;;;20.89;31.18;97823.22;5098170;28;1563;-78
2022/09/22 03:34:47;;;;;;;;;;;;;;;20.80;31.47;97821.81;5081131;28;817;-78
2022/09/22 03:37:13;;;;;;;;;;;;;;;20.52;31.93;97806.38;5064395;28;754;-79
2022/09/22 03:39:38;;;;;;;;;;;;;;;20.73;31.72;97816.34;5040646;28;1981;-79
2022/09/22 03:42:04;;;;;;;;;;;;;;;21.01;31.69;97820.44;5057554;28;818;-78
2022/09/22 03:44:29;;;;;;;;;;;;;;;21.45;30.79;97808.72;5041005;28;862;-78
2022/09/22 03:46:55;;;;;;;;;;;;;;;21.51;30.78;97815.47;5039269;28;1596;-79
2022/09/22 03:49:20;;;;;;;;;;;;;;;21.22;30.77;97821.09;5019286;28;1486;-78
2022/09/22 03:51:46;;;;;;;;;;;;;;;21.06;31.21;97827.59;4991724;28;1037;-78
2022/09/22 03:54:11;;;;;;;;;;;;;;;20.99;31.54;97822.13;4982113;28;777;-78
2022/09/22 03:56:37;;;;;;;;;;;;;;;20.87;31.58;97820.81;4981732;28;814;-78
2022/09/22 03:59:02;;;;;;;;;;;;;;;20.95;31.48;97815.78;5014072;28;962;-78
2022/09/22 04:01:28;;;;;;;;;;;;;;;20.84;31.47;97809.63;5014204;28;1981;-78
2022/09/22 04:03:54;;;;;;;;;;;;;;;21.33;30.99;97819.56;4997710;28;1123;-78
2022/09/22 04:06:19;;;;;;;;;;;;;;;21.52;30.58;97817.81;4997954;28;904;-78
2022/09/22 04:08:45;;;;;;;;;;;;;;;21.44;30.74;97816.44;4997825;28;739;-78
2022/09/22 04:11:10;;;;;;;;;;;;;;;21.05;31.57;97820.34;5021985;28;1446;-78
2022/09/22 04:13:36;;;;;;;;;;;;;;;21.01;31.59;97822.47;5039289;28;797;-78
2022/09/22 04:16:02;;;;;;;;;;;;;;;21.03;31.17;97834.13;5054408;28;778;-78
2022/09/22 04:18:28;;;;;;;;;;;;;;;20.95;31.37;97832.75;5054781;28;758;-78
2022/09/22 04:20:55;;;;;;;;;;;;;;;20.86;31.79;97829.75;5054522;28;1910;-78
2022/09/22 04:23:20;;;;;;;;;;;;;;;21.24;31.54;97827.91;5039260;28;805;-78
2022/09/22 04:25:46;;;;;;;;;;;;;;;21.40;31.06;97829.09;5054819;28;1143;-79
2022/09/22 04:28:11;;;;;;;;;;;;;;;21.32;30.71;97820.03;5039028;28;691;-78
2022/09/22 04:30:37;;;;;;;;;;;;;;;21.16;31.27;97820.84;5038647;28;805;-78
2022/09/22 04:33:02;;;;;;;;;;;;;;;20.93;31.76;97819.03;5054259;28;774;-78
2022/09/22 04:38:03;;;;;;;;;;;;;;;21.62;31.09;97821.59;5037661;28;1347;-84
2022/09/22 04:40:28;;;;;;;;;;;;;;;21.40;31.25;97817.78;5055125;28;1875;-84
2022/09/22 04:42:54;;;;;;;;;;;;;;;21.26;31.84;97828.25;5038525;28;1242;-85
2022/09/22 04:45:20;;;;;;;;;;;;;;;21.16;31.73;97832.16;5039547;28;833;-85
2022/09/22 04:47:46;;;;;;;;;;;;;;;20.99;32.21;97822.13;5055617;28;1132;-85
2022/09/22 04:50:11;;;;;;;;;;;;;;;20.96;32.32;97828.66;5055388;28;801;-85
2022/09/22 04:52:37;;;;;;;;;;;;;;;20.59;33.07;97828.00;5038071;28;852;-85
2022/09/22 04:55:03;;;;;;;;;;;;;;;20.70;32.59;97839.84;5039441;28;834;-84
2022/09/22 04:57:28;;;;;;;;;;;;;;;20.75;32.20;97842.13;5055685;28;1198;-85
2022/09/22 04:59:53;;;;;;;;;;;;;;;20.90;32.67;97853.09;5038056;28;1913;-85
2022/09/22 05:02:19;;;;;;;;;;;;;;;21.16;31.96;97854.78;5054947;28;838;-84
2022/09/22 05:04:44;;;;;;;;;;;;;;;21.55;31.40;97869.91;5039406;28;722;-84
2022/09/22 05:07:10;;;;;;;;;;;;;;;21.15;31.74;97864.53;5039877;28;778;-85
2022/09/22 05:09:35;;;;;;;;;;;;;;;21.03;31.56;97868.06;5039160;28;751;-84
2022/09/22 05:12:01;;;;;;;;;;;;;;;20.86;31.60;97875.00;5038795;28;1122;-84
2022/09/22 05:14:28;;;;;;;;;;;;;;;20.96;31.61;97876.75;5039127;28;774;-85
2022/09/22 05:16:54;;;;;;;;;;;;;;;20.87;31.76;97876.56;5054928;28;832;-85
2022/09/22 05:19:20;;;;;;;;;;;;;;;20.83;32.00;97876.69;5054450;28;1902;-85
2022/09/22 05:21:45;;;;;;;;;;;;;;;20.81;31.87;97879.94;5054350;28;861;-85
2022/09/22 05:24:11;;;;;;;;;;;;;;;20.86;31.86;97889.13;5054436;28;727;-84
2022/09/22 05:26:36;;;;;;;;;;;;;;;20.77;31.78;97879.22;5054959;28;770;-85
2022/09/22 05:29:01;;;;;;;;;;;;;;;20.88;31.60;97883.81;5054031;28;785;-84
2022/09/22 05:31:27;;;;;;;;;;;;;;;20.91;32.19;97891.44;5021636;28;1211;-85
2022/09/22 05:33:52;;;;;;;;;;;;;;;21.24;31.64;97878.84;5054561;28;805;-85
2022/09/22 05:36:18;;;;;;;;;;;;;;;21.50;30.91;97885.44;5055732;28;1046;-85
2022/09/22 05:38:43;;;;;;;;;;;;;;;21.17;31.16;97889.53;5053763;28;861;-85
2022/09/22 05:41:09;;;;;;;;;;;;;;;21.03;31.47;97883.00;5039573;28;1890;-84
2022/09/22 05:43:34;;;;;;;;;;;;;;;20.93;31.70;97881.25;5038170;28;867;-85
2022/09/22 05:46:00;;;;;;;;;;;;;;;20.72;32.21;97871.28;5017274;28;997;-85
2022/09/22 05:48:25;;;;;;;;;;;;;;;20.94;31.72;97874.38;5016927;28;810;-85
2022/09/22 05:50:50;;;;;;;;;;;;;;;21.42;31.18;97867.03;5016848;28;957;-85
2022/09/22 05:53:16;;;;;;;;;;;;;;;21.41;31.02;97870.34;5017084;28;833;-85
2022/09/22 05:55:41;;;;;;;;;;;;;;;21.31;30.92;97867.34;5016988;28;837;-85
2022/09/22 05:58:10;;;;;;;;;;;;;;;21.25;31.18;97868.31;5016904;28;1156;-85
2022/09/22 06:00:36;;;;;;;;;;;;;;;21.00;31.23;97868.97;5016832;28;1922;-85
2022/09/22 06:03:01;;;;;;;;;;;;;;;20.89;31.58;97869.25;5016432;28;747;-84
2022/09/22 06:05:26;;;;;;;;;;;;;;;21.00;31.96;97869.78;5016695;28;960;-84
2022/09/22 06:11:26;;;;;;;;;;;;;;;21.42;31.13;97871.91;5016871;28;817;-84
2022/09/22 06:13:52;;;;;;;;;;;;;;;21.36;31.12;97870.88;5016366;28;742;-85
2022/09/22 06:16:18;;;;;;;;;;;;;;;21.11;31.23;97869.47;5022943;28;1228;-85
2022/09/22 06:18:44;;;;;;;;;;;;;;;21.05;31.53;97868.44;5036523;28;846;-85
2022/09/22 06:21:09;;;;;;;;;;;;;;;21.00;31.38;97866.16;5053103;28;1909;-84
2022/09/22 06:23:35;;;;;;;;;;;;;;;20.98;31.39;97860.13;5035528;28;837;-84
2022/09/22 06:26:00;;;;;;;;;;;;;;;20.75;32.01;97859.09;5036179;28;934;-84
2022/09/22 06:28:26;;;;;;;;;;;;;;;20.90;31.65;97858.75;5052376;28;770;-85
2022/09/22 06:30:51;;;;;;;;;;;;;;;20.97;32.24;97852.88;5053072;28;813;-85
2022/09/22 06:33:17;;;;;;;;;;;;;;;21.25;31.62;97857.78;5035546;28;838;-85
2022/09/22 06:35:44;;;;;;;;;;;;;;;21.54;31.03;97857.78;5019723;28;1190;-85
2022/09/22 06:38:13;;;;;;;;;;;;;;;21.13;31.57;97854.88;5035462;28;850;-84
2022/09/22 06:40:40;;;;;;;;;;;;;;;21.02;31.74;97860.84;5036000;28;1914;-85
2022/09/22 06:43:11;;;;;;;;;;;;;;;21.07;31.37;97858.25;5019131;28;1289;-85
2022/09/22 06:45:41;;;;;;;;;;;;;;;20.90;31.77;97858.75;5036022;28;853;-84
2022/09/22 06:48:07;;;;;;;;;;;;;;;20.66;32.32;97861.75;5002868;28;1288;-85
2022/09/22 06:50:33;;;;;;;;;;;;;;;20.79;32.18;97865.47;5035334;28;707;-85
2022/09/22 06:52:59;;;;;;;;;;;;;;;20.83;32.39;97870.22;5035798;28;1210;-85
2022/09/22 06:55:25;;;;;;;;;;;;;;;21.07;32.42;97874.44;5019065;28;786;-84
2022/09/22 06:57:50;;;;;;;;;;;;;;;21.30;31.84;97873.47;5036323;28;817;-85
2022/09/22 07:00:16;;;;;;;;;;;;;;;21.24;31.52;97872.38;5035035;28;2084;-84
2022/09/22 07:06:17;;;;;;;;;;;;;;;20.74;32.56;97880.13;5039747;28;600;-85
2022/09/22 07:08:43;;;;;;;;;;;;;;;21.07;31.88;97886.53;4989810;28;1106;-84
2022/09/22 07:11:09;;;;;;;;;;;;;;;21.03;31.74;97879.38;5023139;28;731;-84
2022/09/22 07:13:38;;;;;;;;;;;;;;;21.00;32.07;97888.78;5022442;28;838;-84
2022/09/22 07:16:06;;;;;;;;;;;;;;;21.18;32.04;97889.09;5023905;28;1171;-84
2022/09/22 07:18:32;;;;;;;;;;;;;;;21.28;32.03;97890.84;5022218;28;834;-84
2022/09/22 07:21:04;;;;;;;;;;;;;;;21.52;31.46;97887.81;5006597;28;1999;-84
2022/09/22 07:23:30;;;;;;;;;;;;;;;21.19;31.85;97893.53;5005709;28;814;-85
2022/09/22 07:25:55;;;;;;;;;;;;;;;21.04;31.90;97892.31;5022714;28;869;-85
2022/09/22 07:28:22;;;;;;;;;;;;;;;21.13;32.03;97898.13;5022086;28;838;-84
2022/09/22 07:30:47;;;;;;;;;;;;;;;21.05;31.80;97902.38;5040168;28;783;-83
2022/09/22 07:33:13;;;;;;;;;;;;;;;20.84;32.17;97900.09;5040828;28;782;-85
2022/09/22 07:35:38;;;;;;;;;;;;;;;20.98;31.89;97899.72;5040560;28;1040;-83
2022/09/22 07:38:04;;;;;;;;;;;;;;;20.68;32.39;97892.41;5059469;28;778;-85
2022/09/22 07:40:30;;;;;;;;;;;;;;;21.20;32.67;97906.44;5061011;28;1914;-84
2022/09/22 07:42:55;;;;;;;;;;;;;;;21.29;32.05;97906.56;5059510;28;1118;-85
2022/09/22 07:45:22;;;;;;;;;;;;;;;21.28;32.03;97913.47;5059342;28;787;-85
2022/09/22 07:50:31;;;;;;;;;;;;;;;21.00;32.21;97914.22;5059891;28;751;-84
2022/09/22 07:52:57;;;;;;;;;;;;;;;20.92;32.45;97910.78;5042952;28;1213;-85
2022/09/22 07:55:23;;;;;;;;;;;;;;;20.89;32.34;97913.72;5059570;28;802;-85
2022/09/22 07:57:53;;;;;;;;;;;;;;;20.89;32.26;97913.72;5059092;28;850;-85
2022/09/22 08:00:19;;;;;;;;;;;;;;;20.84;32.39;97911.41;5059407;28;1921;-85
2022/09/22 08:02:49;;;;;;;;;;;;;;;21.03;32.29;97919.00;5059386;28;1075;-85
2022/09/22 08:05:15;;;;;;;;;;;;;;;21.06;32.97;97913.25;5058904;28;871;-85
2022/09/22 08:07:42;;;;;;;;;;;;;;;21.33;32.23;97912.97;5060643;28;794;-85
2022/09/22 08:10:09;;;;;;;;;;;;;;;21.37;32.15;97910.06;5059566;28;1182;-84
2022/09/22 08:12:36;;;;;;;;;;;;;;;21.22;32.15;97903.16;5059248;28;1095;-84
2022/09/22 08:15:01;;;;;;;;;;;;;;;21.11;32.06;97902.66;5059946;28;700;-83
2022/09/22 08:17:27;;;;;;;;;;;;;;;21.17;31.88;97904.47;5061161;28;774;-83
2022/09/22 08:19:52;;;;;;;;;;;;;;;20.96;32.47;97899.38;5059158;28;1985;-85
2022/09/22 08:22:17;;;;;;;;;;;;;;;21.10;32.02;97896.19;5042907;28;861;-85
2022/09/22 08:24:43;;;;;;;;;;;;;;;21.25;32.48;97897.41;5042426;28;1099;-85
2022/09/22 08:27:09;;;;;;;;;;;;;;;21.45;31.88;97899.31;5059184;28;778;-85
2022/09/22 08:29:35;;;;;;;;;;;;;;;21.49;31.73;97900.81;5058858;28;726;-84
2022/09/22 08:32:01;;;;;;;;;;;;;;;21.38;31.73;97893.84;5059926;28;1209;-85
2022/09/22 08:34:26;;;;;;;;;;;;;;;21.16;32.16;97897.25;5042125;28;1370;-84
2022/09/22 08:36:51;;;;;;;;;;;;;;;21.16;31.97;97894.41;5042457;28;1205;-85
2022/09/22 08:39:17;;;;;;;;;;;;;;;21.16;31.86;97897.25;5042373;28;770;-85
2022/09/22 08:41:50;;;;;;;;;;;;;;;21.19;31.79;97893.53;5059851;28;1969;-85
2022/09/22 08:44:17;;;;;;;;;;;;;;;21.28;31.70;97896.50;5041504;28;766;-85
2022/09/22 08:46:43;;;;;;;;;;;;;;;21.04;32.19;97893.09;5024416;28;1183;-85
2022/09/22 08:51:57;;;;;;;;;;;;;;;21.13;31.85;97898.13;5007932;28;1194;-85
2022/09/22 08:54:26;;;;;;;;;;;;;;;21.24;32.67;97906.31;5007342;28;1477;-85
2022/09/22 08:57:04;;;;;;;;;;;;;;;21.55;32.13;97903.88;5007071;28;1238;-84
2022/09/22 08:59:32;;;;;;;;;;;;;;;21.36;31.74;97919.00;5007202;28;1981;-84
2022/09/22 09:02:03;;;;;;;;;;;;;;;21.28;32.15;97913.47;4991140;28;1231;-83
2022/09/22 09:04:47;;;;;;;;;;;;;;;21.16;32.38;97917.03;5011053;28;1100;-84
2022/09/22 09:07:15;;;;;;;;;;;;;;;21.09;32.31;97911.59;5008408;28;1212;-84
2022/09/22 09:09:40;;;;;;;;;;;;;;;21.29;31.64;97915.06;5009183;28;1285;-85
2022/09/22 09:12:24;;;;;;;;;;;;;;;21.12;31.83;97905.03;5018128;28;954;-85
2022/09/22 09:15:08;;;;;;;;;;;;;;;20.88;32.34;97906.44;5017052;28;810;-84
2022/09/22 09:17:34;;;;;;;;;;;;;;;20.91;32.49;97899.91;5017585;28;858;-84
2022/09/22 09:20:01;;;;;;;;;;;;;;;20.75;32.36;97904.34;5035114;28;1914;-84
2022/09/22 09:22:34;;;;;;;;;;;;;;;20.79;32.23;97895.78;5041940;28;798;-85
2022/09/22 09:25:05;;;;;;;;;;;;;;;21.05;31.73;97900.34;5024325;28;811;-84
2022/09/22 09:27:32;;;;;;;;;;;;;;;21.01;31.65;97901.69;5041921;28;838;-85
2022/09/22 09:30:02;;;;;;;;;;;;;;;21.10;32.26;97901.06;5040913;28;802;-85
2022/09/22 09:32:33;;;;;;;;;;;;;;;21.20;32.35;97900.78;4981242;28;1221;-85
2022/09/22 09:34:59;;;;;;;;;;;;;;;21.23;32.31;97894.22;4997230;28;1383;-85
2022/09/22 09:37:25;;;;;;;;;;;;;;;21.01;32.35;97898.84;4997382;28;1303;-84
2022/09/22 09:39:50;;;;;;;;;;;;;;;20.94;32.33;97901.88;4997141;28;1973;-85
2022/09/22 09:42:23;;;;;;;;;;;;;;;20.95;32.21;97900.63;4997310;28;804;-85
2022/09/22 09:45:01;;;;;;;;;;;;;;;21.14;31.67;97902.56;4997162;28;747;-84
2022/09/22 09:47:29;;;;;;;;;;;;;;;21.10;31.71;97907.50;4997174;28;809;-85
2022/09/22 09:49:55;;;;;;;;;;;;;;;21.05;32.11;97908.03;4996903;28;739;-85
2022/09/22 09:52:20;;;;;;;;;;;;;;;21.12;31.69;97907.84;4997263;28;811;-85
2022/09/22 09:54:46;;;;;;;;;;;;;;;20.97;31.76;97915.91;4997083;28;795;-85
2022/09/22 09:57:18;;;;;;;;;;;;;;;20.79;32.36;97899.41;4997129;28;970;-84
2022/09/22 10:02:45;;;;;;;;;;;;;;;21.20;32.30;97909.25;5007145;28;981;-85
2022/09/22 10:05:14;;;;;;;;;;;;;;;21.45;31.83;97902.16;5023936;28;759;-84
2022/09/22 10:07:40;;;;;;;;;;;;;;;21.18;31.86;97891.91;5058548;28;770;-85
2022/09/22 10:10:24;;;;;;;;;;;;;;;21.12;32.18;97893.69;5040725;28;793;-85
2022/09/22 10:12:49;;;;;;;;;;;;;;;21.02;31.75;97889.91;5040988;28;1196;-85
2022/09/22 10:15:22;;;;;;;;;;;;;;;20.85;32.31;97879.06;5058267;28;1371;-85
2022/09/22 10:17:47;;;;;;;;;;;;;;;21.06;31.58;97887.00;5058312;28;737;-84
2022/09/22 10:20:14;;;;;;;;;;;;;;;21.09;31.59;97888.94;5058066;28;1906;-85
2022/09/22 10:22:41;;;;;;;;;;;;;;;21.11;31.80;97880.00;5040539;28;1147;-85
2022/09/22 10:25:21;;;;;;;;;;;;;;;21.26;31.85;97887.66;5040260;28;782;-84
2022/09/22 10:28:08;;;;;;;;;;;;;;;21.37;31.65;97875.28;5040686;28;801;-84
2022/09/22 10:30:37;;;;;;;;;;;;;;;21.40;31.68;97877.22;5024471;28;1095;-85
2022/09/22 10:33:02;;;;;;;;;;;;;;;21.20;31.82;97871.69;5040928;28;1149;-85
2022/09/22 10:35:28;;;;;;;;;;;;;;;20.87;32.13;97876.56;5040279;28;1117;-84
2022/09/22 10:37:57;;;;;;;;;;;;;;;20.97;31.90;97881.16;5040280;28;1183;-85
2022/09/22 10:40:22;;;;;;;;;;;;;;;21.05;31.73;97876.94;5040851;28;1962;-84
2022/09/22 10:42:48;;;;;;;;;;;;;;;21.16;31.67;97866.13;5058080;28;826;-85
2022/09/22 10:45:18;;;;;;;;;;;;;;;21.02;31.72;97877.81;5023290;28;993;-85
2022/09/22 10:48:02;;;;;;;;;;;;;;;20.88;32.09;97873.31;5056616;28;1100;-84
2022/09/22 10:50:29;;;;;;;;;;;;;;;20.84;31.88;97871.81;5058047;28;822;-84
2022/09/22 10:52:58;;;;;;;;;;;;;;;20.88;31.82;97866.84;5039928;28;758;-85
2022/09/22 10:55:27;;;;;;;;;;;;;;;21.04;31.39;97875.34;5023886;28;1202;-85
2022/09/22 10:58:07;;;;;;;;;;;;;;;21.12;32.40;97876.72;5040043;28;802;-85
2022/09/22 11:00:38;;;;;;;;;;;;;;;21.21;31.89;97871.22;5057864;28;1913;-84
2022/09/22 11:03:23;;;;;;;;;;;;;;;21.20;31.93;97872.47;5039814;28;766;-84
2022/09/22 11:15:12;;;;;;;;;;;;;;;20.96;31.79;97856.97;5042484;28;790;-84
2022/09/22 11:17:40;;;;;;;;;;;;;;;20.96;31.88;97869.06;5040716;28;1157;-85
2022/09/22 11:20:10;;;;;;;;;;;;;;;20.89;31.92;97863.59;5039991;28;1898;-85
2022/09/22 11:22:51;;;;;;;;;;;;;;;21.21;32.15;97862.75;5040306;28;691;-85
2022/09/22 11:25:23;;;;;;;;;;;;;;;21.26;31.71;97862.19;5057736;28;728;-85
2022/09/22 11:27:49;;;;;;;;;;;;;;;21.22;31.81;97855.03;5039702;28;830;-85
2022/09/22 11:30:19;;;;;;;;;;;;;;;21.01;31.83;97859.25;5039683;28;747;-84
2022/09/22 11:32:44;;;;;;;;;;;;;;;21.17;31.50;97856.38;5040342;28;739;-85
2022/09/22 11:35:22;;;;;;;;;;;;;;;20.92;31.88;97861.91;5057759;28;731;-85
2022/09/22 11:37:49;;;;;;;;;;;;;;;20.87;32.06;97859.59;5057536;28;1303;-84
2022/09/22 11:40:16;;;;;;;;;;;;;;;20.88;31.99;97858.38;5057366;28;1898;-85
2022/09/22 11:42:42;;;;;;;;;;;;;;;21.00;31.70;97852.00;5040073;28;1452;-84
2022/09/22 11:45:26;;;;;;;;;;;;;;;21.08;31.54;97851.34;5057350;28;817;-85
2022/09/22 11:47:56;;;;;;;;;;;;;;;21.25;31.70;97852.13;5041285;28;1421;-82
2022/09/22 11:50:29;;;;;;;;;;;;;;;21.24;31.88;97850.53;5027462;28;1122;-85
2022/09/22 11:56:37;;;;;;;;;;;;;;;21.03;32.14;97845.44;5062149;28;605;-84
2022/09/22 11:59:23;;;;;;;;;;;;;;;20.81;32.21;97840.34;5043437;28;762;-85
2022/09/22 12:01:48;;;;;;;;;;;;;;;21.01;31.79;97847.94;4983382;28;1973;-85
2022/09/22 12:04:34;;;;;;;;;;;;;;;20.86;31.82;97843.88;4980380;28;917;-84
2022/09/22 12:07:00;;;;;;;;;;;;;;;20.95;31.93;97847.69;4960506;29;992;-85
2022/09/22 12:09:31;;;;;;;;;;;;;;;21.02;32.02;97849.50;4976692;28;846;-85
2022/09/22 12:11:56;;;;;;;;;;;;;;;21.39;31.52;97844.50;4977322;28;956;-85
2022/09/22 12:14:22;;;;;;;;;;;;;;;21.50;31.07;97842.16;4976791;28;1223;-85
2022/09/22 12:16:49;;;;;;;;;;;;;;;20.99;31.77;97850.41;4960718;29;838;-84
2022/09/22 12:19:28;;;;;;;;;;;;;;;21.00;31.52;97837.88;4976458;28;1016;-85
2022/09/22 12:21:53;;;;;;;;;;;;;;;21.05;31.27;97848.63;4960429;29;1903;-85
2022/09/22 12:24:19;;;;;;;;;;;;;;;20.92;31.26;97850.59;4921894;29;1128;-85
2022/09/22 12:26:45;;;;;;;;;;;;;;;20.77;31.51;97847.34;4890969;29;979;-84
2022/09/22 12:29:13;;;;;;;;;;;;;;;20.90;31.10;97850.25;4906111;29;1114;-85
2022/09/22 12:31:39;;;;;;;;;;;;;;;20.95;31.52;97844.84;4921954;29;1078;-84
2022/09/22 12:34:05;;;;;;;;;;;;;;;21.20;30.84;97838.53;4905937;29;843;-84
2022/09/22 12:36:30;;;;;;;;;;;;;;;21.43;30.43;97848.81;4921616;29;1246;-85
2022/09/22 12:39:16;;;;;;;;;;;;;;;21.29;30.60;97846.34;4968488;28;893;-85
2022/09/22 12:41:46;;;;;;;;;;;;;;;21.28;30.60;97834.25;4998580;28;1907;-85
2022/09/22 12:44:14;;;;;;;;;;;;;;;20.91;30.93;97843.34;4966435;28;821;-85
2022/09/22 12:46:40;;;;;;;;;;;;;;;21.07;30.64;97829.16;4982901;28;1112;-85
2022/09/22 12:49:07;;;;;;;;;;;;;;;20.93;30.77;97836.00;4998220;28;954;-85
2022/09/22 12:51:33;;;;;;;;;;;;;;;20.97;30.82;97835.91;4998861;28;771;-85
2022/09/22 12:54:17;;;;;;;;;;;;;;;21.19;30.59;97845.44;4998255;28;799;-85
2022/09/22 12:56:46;;;;;;;;;;;;;;;21.49;30.12;97843.41;5059514;28;1122;-85
2022/09/22 12:59:30;;;;;;;;;;;;;;;21.19;30.72;97842.59;5042325;28;790;-85
2022/09/22 13:02:14;;;;;;;;;;;;;;;20.99;30.95;97851.22;5042187;28;715;-84
2022/09/22 13:04:40;;;;;;;;;;;;;;;20.88;30.82;97849.88;5041753;28;711;-85
2022/09/22 13:07:24;;;;;;;;;;;;;;;20.94;30.75;97839.66;5060308;28;777;-84
2022/09/22 13:10:10;;;;;;;;;;;;;;;20.85;31.01;97839.47;5059619;28;735;-85
2022/09/22 13:12:35;;;;;;;;;;;;;;;21.08;30.55;97839.25;5042319;28;1079;-84
2022/09/22 13:15:04;;;;;;;;;;;;;;;21.35;30.05;97838.97;5059351;28;694;-85
2022/09/22 13:17:40;;;;;;;;;;;;;;;21.65;29.56;97845.38;5041632;28;794;-85
2022/09/22 13:20:09;;;;;;;;;;;;;;;21.04;30.50;97847.06;5041463;28;1979;-85
2022/09/22 13:22:35;;;;;;;;;;;;;;;20.93;30.64;97849.34;5041679;28;834;-84
2022/09/22 13:25:12;;;;;;;;;;;;;;;20.94;30.41;97848.91;5041540;28;758;-85
2022/09/22 13:27:38;;;;;;;;;;;;;;;20.89;30.56;97846.63;5058360;28;826;-85
2022/09/22 13:30:06;;;;;;;;;;;;;;;20.95;30.58;97844.06;5024829;28;743;-85
2022/09/22 13:32:31;;;;;;;;;;;;;;;21.42;29.76;97843.63;5059484;28;767;-84
2022/09/22 13:34:56;;;;;;;;;;;;;;;21.41;29.53;97839.19;5041070;28;754;-85
2022/09/22 13:37:22;;;;;;;;;;;;;;;21.04;30.07;97841.41;5041437;28;1185;-84
2022/09/22 13:39:51;;;;;;;;;;;;;;;20.94;30.32;97853.78;5040879;28;1910;-85
2022/09/22 13:42:23;;;;;;;;;;;;;;;20.84;30.72;97849.19;5041691;28;790;-85
2022/09/22 13:44:52;;;;;;;;;;;;;;;21.00;30.32;97860.50;5040764;28;753;-84
2022/09/22 13:47:19;;;;;;;;;;;;;;;20.87;30.58;97856.78;5041112;28;798;-85
2022/09/22 13:49:50;;;;;;;;;;;;;;;21.23;30.03;97853.81;5058570;28;798;-85
2022/09/22 13:52:18;;;;;;;;;;;;;;;21.55;29.35;97858.59;5009128;28;1016;-84
2022/09/22 13:54:44;;;;;;;;;;;;;;;21.27;29.88;97857.34;5040638;28;825;-84
2022/09/22 13:57:15;;;;;;;;;;;;;;;21.25;29.93;97860.63;5040645;28;1115;-85